Blue Bay — V2CE6 — position and weather

sailwx.info

Track history (hours):
 
Tides and Currents Weather Stations Pressure Air Temp Water Temp Dewpoint Dewpoint Depression Visibility Wind Speed Wind Dir Waves Ship Positions

Blue Bay

Last reported at 2017-Aug-23 07:49 UTC. Time now 2017-Aug-24 08:58 UTC.
Position N 54°29' E 013°40'.

Length 90 m; draft 5.7 m.

Type: Cargo ship. MMSI: 304519000.

Date/timePositionNaut miles runAvg speedWind from/ knotsBaromVisibWave heightAir tempDewpointWater temp
2017-Aug-23 07:49N 54°29' E 013°40'0 0.0
2017-Aug-23 07:22N 54°29' E 013°40'0 0.0
2017-Aug-23 06:21N 54°29' E 013°40'0 0.0
2017-Aug-23 04:50N 54°29' E 013°40'0 0.0
2017-Aug-23 04:19N 54°29' E 013°40'0 0.0
2017-Aug-23 03:35N 54°29' E 013°40'0 0.1
2017-Aug-23 03:29N 54°29' E 013°40'0 0.1
2017-Aug-23 03:00N 54°29' E 013°40'13 3.6
2017-Aug-22 23:25N 54°42' E 013°35'410.0
2017-Aug-22 23:01N 54°45' E 013°32'5 9.7
2017-Aug-22 22:30N 54°50' E 013°29'5 9.6
2017-Aug-22 22:01N 54°55' E 013°26'5 9.2
2017-Aug-22 21:31N 54°58' E 013°22'6 9.0
2017-Aug-22 20:51N 55°03' E 013°16'3 9.4
2017-Aug-22 20:29N 55°05' E 013°11'4 9.3
2017-Aug-22 20:01N 55°08' E 013°05'5 9.2
2017-Aug-22 19:30N 55°11' E 012°59'5 9.5
2017-Aug-22 19:00N 55°14' E 012°52'5 9.5
2017-Aug-22 18:31N 55°16' E 012°45'5 9.2
2017-Aug-22 18:00N 55°18' E 012°38'4 8.6
2017-Aug-22 17:30N 55°23' E 012°39'4 8.9
2017-Aug-22 17:00N 55°27' E 012°40'5 9.3
2017-Aug-22 16:31N 55°32' E 012°42'5 9.1
2017-Aug-22 16:01N 55°36' E 012°42'5 9.2
2017-Aug-22 15:31N 55°41' E 012°41'5 9.6
2017-Aug-22 15:01N 55°45' E 012°41'5 9.0
2017-Aug-22 14:31N 55°50' E 012°43'3 6.7
2017-Aug-22 14:01N 55°53' E 012°46'2 4.4
2017-Aug-22 13:31N 55°52' E 012°50'0 0.2
2017-Aug-22 12:58N 55°52' E 012°50'0 0.0
2017-Aug-22 12:28N 55°52' E 012°50'0 0.0
2017-Aug-22 11:58N 55°52' E 012°50'0 0.0
2017-Aug-22 11:28N 55°52' E 012°50'0 0.0
2017-Aug-22 10:58N 55°52' E 012°50'0 0.0
2017-Aug-22 10:28N 55°52' E 012°50'0 0.0
2017-Aug-22 09:58N 55°52' E 012°50'0 0.0
2017-Aug-22 09:28N 55°52' E 012°50'0 0.0
2017-Aug-22 08:58N 55°52' E 012°50'0 0.0
2017-Aug-22 08:28N 55°52' E 012°50'0 0.0
2017-Aug-22 07:58N 55°52' E 012°50'0 0.0
2017-Aug-22 07:28N 55°52' E 012°50'0 0.0
2017-Aug-22 06:58N 55°52' E 012°50'0 0.0
2017-Aug-22 06:23N 55°52' E 012°50'0 0.0
2017-Aug-22 05:59N 55°52' E 012°50'0 0.0
2017-Aug-22 05:29N 55°52' E 012°50'0 0.0
2017-Aug-22 04:59N 55°52' E 012°50'0 0.0
2017-Aug-22 04:29N 55°52' E 012°50'0 0.0
2017-Aug-22 03:59N 55°52' E 012°50'0 0.0
2017-Aug-22 03:29N 55°52' E 012°50'0 0.0
2017-Aug-22 02:59N 55°52' E 012°50'0 0.0
2017-Aug-22 02:29N 55°52' E 012°50'0 0.0
2017-Aug-22 01:59N 55°52' E 012°50'0 0.0
2017-Aug-22 01:29N 55°52' E 012°50'0 0.0
2017-Aug-22 00:59N 55°52' E 012°50'0 0.0
2017-Aug-22 00:29N 55°52' E 012°50'0 0.0
2017-Aug-21 23:59N 55°52' E 012°50'0 0.0
2017-Aug-21 23:29N 55°52' E 012°50'0 0.0
2017-Aug-21 22:59N 55°52' E 012°50'0 0.0
2017-Aug-21 22:29N 55°52' E 012°50'0 0.0
2017-Aug-21 21:59N 55°52' E 012°50'0 0.0
2017-Aug-21 21:29N 55°52' E 012°50'0 0.0
2017-Aug-21 20:59N 55°52' E 012°50'0 0.0
2017-Aug-21 20:29N 55°52' E 012°50'0 0.0
2017-Aug-21 19:59N 55°52' E 012°50'0 0.0
2017-Aug-21 19:29N 55°52' E 012°50'0 0.0
2017-Aug-21 18:59N 55°52' E 012°50'0 0.0
2017-Aug-21 18:29N 55°52' E 012°50'0 0.0
2017-Aug-21 17:59N 55°52' E 012°50'0 0.0
2017-Aug-21 17:29N 55°52' E 012°50'0 0.0
2017-Aug-21 16:59N 55°52' E 012°50'0 0.0
2017-Aug-21 16:29N 55°52' E 012°50'0 0.0
2017-Aug-21 15:59N 55°52' E 012°50'0 0.0
2017-Aug-21 15:29N 55°52' E 012°50'0 0.0
2017-Aug-21 14:55N 55°52' E 012°50'0 0.0
2017-Aug-21 14:28N 55°52' E 012°50'0 0.0
2017-Aug-21 13:58N 55°52' E 012°50'0 0.0
2017-Aug-21 13:28N 55°52' E 012°50'0 0.0
2017-Aug-21 12:58N 55°52' E 012°50'0 0.0
2017-Aug-21 12:28N 55°52' E 012°50'0 0.0
2017-Aug-21 11:58N 55°52' E 012°50'0 0.0
2017-Aug-21 11:28N 55°52' E 012°50'0 0.0
2017-Aug-21 10:58N 55°52' E 012°50'0 0.0
2017-Aug-21 10:28N 55°52' E 012°50'0 0.0
2017-Aug-21 09:58N 55°52' E 012°50'0 0.0
2017-Aug-21 09:28N 55°52' E 012°50'0 0.0
2017-Aug-21 08:58N 55°52' E 012°50'0 0.0
2017-Aug-21 08:28N 55°52' E 012°50'0 0.0
2017-Aug-21 07:58N 55°52' E 012°50'0 0.0
2017-Aug-21 07:28N 55°52' E 012°50'0 0.0
2017-Aug-21 06:58N 55°52' E 012°50'0 0.0
2017-Aug-21 06:28N 55°52' E 012°50'0 0.0
2017-Aug-21 05:58N 55°52' E 012°50'0 0.0
2017-Aug-21 05:28N 55°52' E 012°50'0 0.0
2017-Aug-21 04:58N 55°52' E 012°50'0 0.0
2017-Aug-21 04:28N 55°52' E 012°50'0 0.0
2017-Aug-21 03:58N 55°52' E 012°50'0 0.0
2017-Aug-21 03:28N 55°52' E 012°50'0 0.0
2017-Aug-21 02:58N 55°52' E 012°50'0 0.0
2017-Aug-21 02:28N 55°52' E 012°50'0 0.0
2017-Aug-21 01:58N 55°52' E 012°50'0 0.0
2017-Aug-21 01:28N 55°52' E 012°50'0 0.0
2017-Aug-21 00:58N 55°52' E 012°50'0 0.0
2017-Aug-21 00:28N 55°52' E 012°50'0 0.0
2017-Aug-20 23:58N 55°52' E 012°50'0 0.0
2017-Aug-20 23:28N 55°52' E 012°50'0 0.0
2017-Aug-20 22:58N 55°52' E 012°50'0 0.0
2017-Aug-20 22:28N 55°52' E 012°50'0 0.0
2017-Aug-20 21:58N 55°52' E 012°50'0 0.0
2017-Aug-20 21:28N 55°52' E 012°50'0 0.0
2017-Aug-20 20:58N 55°52' E 012°50'0 0.0
2017-Aug-20 20:28N 55°52' E 012°50'0 0.0
2017-Aug-20 19:58N 55°52' E 012°50'0 0.0
2017-Aug-20 19:28N 55°52' E 012°50'0 0.0
2017-Aug-20 18:58N 55°52' E 012°50'0 0.0
2017-Aug-20 18:28N 55°52' E 012°50'0 0.0
2017-Aug-20 17:55N 55°52' E 012°50'0 0.0
2017-Aug-20 17:28N 55°52' E 012°50'0 0.0
2017-Aug-20 16:58N 55°52' E 012°50'0 0.0
2017-Aug-20 16:28N 55°52' E 012°50'0 0.0
2017-Aug-20 15:58N 55°52' E 012°50'0 0.0
2017-Aug-20 15:28N 55°52' E 012°50'0 0.0
2017-Aug-20 14:58N 55°52' E 012°50'0 0.0
2017-Aug-20 14:28N 55°52' E 012°50'0 0.0
2017-Aug-20 13:58N 55°52' E 012°50'0 0.0
2017-Aug-20 13:28N 55°52' E 012°50'0 0.0
2017-Aug-20 12:58N 55°52' E 012°50'0 0.0
2017-Aug-20 12:28N 55°52' E 012°50'0 0.0
2017-Aug-20 11:58N 55°52' E 012°50'0 0.0
2017-Aug-20 11:28N 55°52' E 012°50'0 0.0
2017-Aug-20 10:58N 55°52' E 012°50'0 0.0
2017-Aug-20 10:28N 55°52' E 012°50'0 0.0
2017-Aug-20 09:58N 55°52' E 012°50'0 0.0
2017-Aug-20 09:28N 55°52' E 012°50'0 0.0
2017-Aug-20 08:55N 55°52' E 012°50'0 0.0
2017-Aug-20 08:28N 55°52' E 012°50'0 0.0
2017-Aug-20 07:58N 55°52' E 012°50'0 0.0
2017-Aug-20 07:28N 55°52' E 012°50'0 0.0
2017-Aug-20 07:00N 55°52' E 012°50'2 3.0
2017-Aug-20 06:30N 55°52' E 012°47'4 7.8
2017-Aug-20 06:00N 55°56' E 012°44'510.7
2017-Aug-20 05:30N 56°01' E 012°40'510.0
2017-Aug-20 05:00N 56°05' E 012°35'611.1
2017-Aug-20 04:30N 56°08' E 012°27'510.6
2017-Aug-20 04:00N 56°11' E 012°19'51 9.8
2017-Aug-19 22:50N 56°58' E 011°43'610.3
2017-Aug-19 22:17N 57°03' E 011°40'4 9.9
2017-Aug-19 21:50N 57°07' E 011°37'4 9.8
2017-Aug-19 21:27N 57°11' E 011°34'5 9.7
2017-Aug-19 20:59N 57°15' E 011°31'5 9.9
2017-Aug-19 20:30N 57°19' E 011°28'5 9.8
2017-Aug-19 20:00N 57°24' E 011°25'5 9.3
2017-Aug-19 19:30N 57°28' E 011°22'5 9.6
2017-Aug-19 19:00N 57°32' E 011°16'510.6
2017-Aug-19 18:30N 57°35' E 011°08'510.7
2017-Aug-19 18:00N 57°39' E 011°01'610.5
2017-Aug-19 17:28N 57°43' E 010°54'510.4
2017-Aug-19 17:00N 57°46' E 010°47'611.6
2017-Aug-19 16:30N 57°46' E 010°37'612.1
2017-Aug-19 16:00N 57°45' E 010°25'611.4
2017-Aug-19 15:30N 57°43' E 010°15'15910.9
2017-Aug-19 00:58N 55°35' E 007°25'611.7
2017-Aug-19 00:29N 55°29' E 007°25'611.6
2017-Aug-19 00:00N 55°23' E 007°26'611.4
2017-Aug-18 23:30N 55°18' E 007°26'611.5
2017-Aug-18 23:00N 55°12' E 007°26'611.6
2017-Aug-18 22:30N 55°06' E 007°26'611.8
2017-Aug-18 22:00N 55°00' E 007°26'611.4
2017-Aug-18 21:30N 54°55' E 007°26'611.4
2017-Aug-18 20:58N 54°49' E 007°27'911.3
2017-Aug-18 20:13N 54°40' E 007°29'33 9.9
2017-Aug-18 16:53N 54°08' E 007°43'4 9.6
2017-Aug-18 16:30N 54°07' E 007°49'5 9.7
2017-Aug-18 15:59N 54°04' E 007°56'510.2
2017-Aug-18 15:30N 54°02' E 008°04'510.3
2017-Aug-18 15:00N 54°01' E 008°12'611.8
2017-Aug-18 14:30N 53°60' E 008°22'1212.4
2017-Aug-18 13:30N 53°55' E 008°41'713.6
2017-Aug-18 13:01N 53°50' E 008°50'714.0
2017-Aug-18 12:30N 53°52' E 009°02'611.7
2017-Aug-18 12:00N 53°53' E 009°12'611.3
2017-Aug-18 11:30N 53°51' E 009°20'611.4
2017-Aug-18 11:01N 53°45' E 009°24'510.3
2017-Aug-18 10:30N 53°41' E 009°30'5 9.7
2017-Aug-18 10:01N 53°37' E 009°33'5 9.5
2017-Aug-18 09:31N 53°34' E 009°40'4 8.5
2017-Aug-18 09:01N 53°34' E 009°47'4 8.5
2017-Aug-18 08:31N 53°33' E 009°54'2 4.0
2017-Aug-18 07:59N 53°31' E 009°57'0 0.0
2017-Aug-18 07:29N 53°31' E 009°57'0 0.0
2017-Aug-18 06:59N 53°31' E 009°57'0 0.0
2017-Aug-18 06:30N 53°31' E 009°57'0 0.0
2017-Aug-18 05:59N 53°31' E 009°57'0 0.0
2017-Aug-18 05:26N 53°31' E 009°57'0 0.0
2017-Aug-18 05:00N 53°31' E 009°57'0 0.0
2017-Aug-18 04:29N 53°31' E 009°57'0 0.0
2017-Aug-18 03:59N 53°31' E 009°57'0 0.0
2017-Aug-18 03:30N 53°31' E 009°57'0 0.0
2017-Aug-18 03:00N 53°31' E 009°57'0 0.0
2017-Aug-18 02:26N 53°31' E 009°57'0 0.0
2017-Aug-18 01:59N 53°31' E 009°57'0 0.0
2017-Aug-18 01:29N 53°31' E 009°57'0 0.0
2017-Aug-18 00:59N 53°31' E 009°57'0 0.0
2017-Aug-18 00:30N 53°31' E 009°57'0 0.0
2017-Aug-17 23:59N 53°31' E 009°57'0 0.0
2017-Aug-17 23:26N 53°31' E 009°57'0 0.0
2017-Aug-17 22:56N 53°31' E 009°57'0 0.0
2017-Aug-17 22:29N 53°31' E 009°57'0 0.0
2017-Aug-17 21:59N 53°31' E 009°57'0 0.0
2017-Aug-17 21:29N 53°31' E 009°57'0 0.0
2017-Aug-17 20:59N 53°31' E 009°57'0 0.0
2017-Aug-17 20:30N 53°31' E 009°57'0 0.0
2017-Aug-17 19:59N 53°31' E 009°57'0 0.0
2017-Aug-17 19:29N 53°31' E 009°57'0 0.0
2017-Aug-17 18:59N 53°31' E 009°57'0 0.0
2017-Aug-17 18:31N 53°31' E 009°57'1 2.9
2017-Aug-17 18:00N 53°32' E 009°55'4 8.3
2017-Aug-17 17:31N 53°33' E 009°49'5 9.3
2017-Aug-17 17:01N 53°34' E 009°41'4 8.7
2017-Aug-17 16:31N 53°36' E 009°35'1 2.8
2017-Aug-17 16:00N 53°37' E 009°33'0 0.0
2017-Aug-17 15:30N 53°37' E 009°33'0 0.0
2017-Aug-17 15:00N 53°37' E 009°33'0 0.0
2017-Aug-17 14:30N 53°37' E 009°33'0 0.0
2017-Aug-17 14:00N 53°37' E 009°33'0 0.0
2017-Aug-17 13:30N 53°37' E 009°33'0 0.0
2017-Aug-17 13:00N 53°37' E 009°33'0 0.0
2017-Aug-17 12:30N 53°37' E 009°33'0 0.0
2017-Aug-17 12:00N 53°37' E 009°33'0 0.0
2017-Aug-17 11:30N 53°37' E 009°33'0 0.0
2017-Aug-17 11:00N 53°37' E 009°33'0 0.0
2017-Aug-17 10:30N 53°37' E 009°33'0 0.2
2017-Aug-17 10:00N 53°37' E 009°33'0 0.1
2017-Aug-17 09:30N 53°37' E 009°33'0 0.1
2017-Aug-17 09:00N 53°37' E 009°33'0 0.0
2017-Aug-17 08:30N 53°37' E 009°33'0 0.1
2017-Aug-17 08:01N 53°37' E 009°33'0 0.1
2017-Aug-17 07:30N 53°37' E 009°33'0 0.0
2017-Aug-17 07:00N 53°37' E 009°33'0 0.0
2017-Aug-17 06:31N 53°37' E 009°33'0 0.1
2017-Aug-17 06:00N 53°37' E 009°33'0 0.1
2017-Aug-17 05:31N 53°37' E 009°33'0 0.0
2017-Aug-17 05:00N 53°37' E 009°33'0 0.2
2017-Aug-17 04:30N 53°37' E 009°33'0 0.1
2017-Aug-17 04:01N 53°37' E 009°33'0 0.0
2017-Aug-17 03:30N 53°37' E 009°33'0 0.0
2017-Aug-17 03:00N 53°37' E 009°33'0 0.0
2017-Aug-17 02:30N 53°37' E 009°33'0 0.0
2017-Aug-17 02:00N 53°37' E 009°33'0 0.0
2017-Aug-17 01:30N 53°37' E 009°33'0 0.0
2017-Aug-17 01:00N 53°37' E 009°33'0 0.0
2017-Aug-17 00:30N 53°37' E 009°33'0 0.0
2017-Aug-17 00:01N 53°37' E 009°33'0 0.0
2017-Aug-16 23:30N 53°37' E 009°33'0 0.0
2017-Aug-16 23:00N 53°37' E 009°33'0 0.0
2017-Aug-16 22:30N 53°37' E 009°33'0 0.0
2017-Aug-16 22:00N 53°37' E 009°33'0 0.2
2017-Aug-16 21:30N 53°37' E 009°33'0 0.0
2017-Aug-16 21:00N 53°37' E 009°33'0 0.0
2017-Aug-16 20:30N 53°37' E 009°33'0 0.0
2017-Aug-16 20:00N 53°37' E 009°33'0 0.0
2017-Aug-16 19:30N 53°37' E 009°33'0 0.0
2017-Aug-16 19:00N 53°37' E 009°33'0 0.0
2017-Aug-16 18:31N 53°37' E 009°33'0 0.0
2017-Aug-16 18:00N 53°37' E 009°33'0 0.0
2017-Aug-16 17:31N 53°37' E 009°33'0 0.0
2017-Aug-16 17:00N 53°37' E 009°33'0 0.0
2017-Aug-16 16:30N 53°37' E 009°33'0 0.1
2017-Aug-16 16:00N 53°37' E 009°33'0 0.2
2017-Aug-16 15:30N 53°37' E 009°33'3 6.7
2017-Aug-16 15:00N 53°40' E 009°30'4 8.4
2017-Aug-16 14:31N 53°44' E 009°27'4 7.8
2017-Aug-16 14:01N 53°47' E 009°23'4 7.8
2017-Aug-16 13:30N 53°50' E 009°20'4 7.5
2017-Aug-16 13:00N 53°52' E 009°15'4 7.2
2017-Aug-16 12:30N 53°53' E 009°09'1 1.8
2017-Aug-16 12:00N 53°54' E 009°09'2 3.1
2017-Aug-16 11:30N 53°55' E 009°11'4 8.5
2017-Aug-16 11:00N 53°58' E 009°15'4 8.4
2017-Aug-16 10:30N 54°02' E 009°18'6 8.6
2017-Aug-16 09:49N 54°08' E 009°20'35 5.7
2017-Aug-16 03:41N 54°24' E 010°12'2 9.2
2017-Aug-16 03:28N 54°26' E 010°13'5 9.1
2017-Aug-16 02:55N 54°30' E 010°18'4 9.1
2017-Aug-16 02:30N 54°32' E 010°24'5 9.3
2017-Aug-16 02:00N 54°34' E 010°32'4 9.1
2017-Aug-16 01:30N 54°35' E 010°39'5 9.2
2017-Aug-16 01:00N 54°35' E 010°47'510.0
2017-Aug-16 00:31N 54°36' E 010°56'510.4
2017-Aug-16 00:00N 54°36' E 011°05'510.2
2017-Aug-15 23:30N 54°35' E 011°13'510.4
2017-Aug-15 23:00N 54°33' E 011°21'510.0
2017-Aug-15 22:30N 54°31' E 011°29'5 9.7
2017-Aug-15 22:00N 54°29' E 011°37'5 9.8
2017-Aug-15 21:30N 54°27' E 011°44'5 9.4
2017-Aug-15 21:00N 54°26' E 011°52'9 9.8
2017-Aug-15 20:05N 54°27' E 012°08'110.1
2017-Aug-15 20:00N 54°27' E 012°09'5 9.8
2017-Aug-15 19:30N 54°32' E 012°12'510.0
2017-Aug-15 19:00N 54°36' E 012°15'5 9.3
2017-Aug-15 18:30N 54°39' E 012°21'5 9.4
2017-Aug-15 18:00N 54°42' E 012°28'5 9.5
2017-Aug-15 17:30N 54°45' E 012°35'5 9.2
2017-Aug-15 17:00N 54°47' E 012°41'5 9.4
2017-Aug-15 16:30N 54°49' E 012°49'5 9.7
2017-Aug-15 16:01N 54°50' E 012°57'5 9.7
2017-Aug-15 15:30N 54°52' E 013°05'5 9.5
2017-Aug-15 15:01N 54°53' E 013°13'5 9.5
2017-Aug-15 14:30N 54°55' E 013°21'4 9.0
2017-Aug-15 14:00N 54°57' E 013°27'5 9.4
2017-Aug-15 13:31N 55°02' E 013°30'5 9.3
2017-Aug-15 13:00N 55°06' E 013°34'5 9.3
2017-Aug-15 12:31N 55°10' E 013°37'5 9.3
2017-Aug-15 12:01N 55°14' E 013°40'5 9.5
2017-Aug-15 11:31N 55°19' E 013°44'5 9.4
2017-Aug-15 11:00N 55°23' E 013°47'3 5.5
2017-Aug-15 10:29N 55°26' E 013°49'0 0.0
2017-Aug-15 09:53N 55°26' E 013°49'0 0.0
2017-Aug-15 09:29N 55°25' E 013°49'0 0.0
2017-Aug-15 08:59N 55°26' E 013°49'0 0.1
2017-Aug-15 08:29N 55°25' E 013°49'0 0.0
2017-Aug-15 07:59N 55°25' E 013°49'0 0.0
2017-Aug-15 07:23N 55°25' E 013°49'0 0.0
2017-Aug-15 06:59N 55°25' E 013°49'0 0.0
2017-Aug-15 06:29N 55°25' E 013°49'0 0.0
2017-Aug-15 05:59N 55°25' E 013°49'0 0.0
2017-Aug-15 05:23N 55°25' E 013°49'0 0.0
2017-Aug-15 04:59N 55°25' E 013°49'0 0.0
2017-Aug-15 04:23N 55°25' E 013°49'0 0.0
2017-Aug-15 03:59N 55°25' E 013°49'0 0.0
2017-Aug-15 03:29N 55°25' E 013°49'0 0.0
2017-Aug-15 02:59N 55°25' E 013°49'0 0.0
2017-Aug-15 02:29N 55°25' E 013°49'0 0.0
2017-Aug-15 01:59N 55°25' E 013°49'0 0.0
2017-Aug-15 01:29N 55°25' E 013°49'0 0.0
2017-Aug-15 00:59N 55°25' E 013°49'0 0.0
2017-Aug-15 00:29N 55°25' E 013°49'0 0.0
2017-Aug-14 23:59N 55°25' E 013°49'0 0.0
2017-Aug-14 23:29N 55°25' E 013°49'0 0.0
2017-Aug-14 22:59N 55°25' E 013°49'0 0.0
2017-Aug-14 22:29N 55°25' E 013°49'0 0.0
2017-Aug-14 21:59N 55°25' E 013°49'0 0.0
2017-Aug-14 21:29N 55°25' E 013°49'0 0.0
2017-Aug-14 20:59N 55°25' E 013°49'0 0.0
2017-Aug-14 20:29N 55°25' E 013°49'0 0.0
2017-Aug-14 19:59N 55°25' E 013°49'0 0.0
2017-Aug-14 19:29N 55°25' E 013°49'0 0.0
2017-Aug-14 18:53N 55°25' E 013°49'0 0.0
2017-Aug-14 18:29N 55°25' E 013°49'0 0.1
2017-Aug-14 17:59N 55°26' E 013°49'0 0.0
2017-Aug-14 17:29N 55°26' E 013°49'0 0.1
2017-Aug-14 16:59N 55°25' E 013°49'0 0.0
2017-Aug-14 16:29N 55°25' E 013°49'0 0.0
2017-Aug-14 15:59N 55°25' E 013°49'0 0.0
2017-Aug-14 15:23N 55°25' E 013°49'0 0.0
2017-Aug-14 14:53N 55°25' E 013°49'0 0.0
2017-Aug-14 14:29N 55°25' E 013°49'0 0.0
2017-Aug-14 13:59N 55°25' E 013°49'0 0.0
2017-Aug-14 13:29N 55°25' E 013°49'0 0.0
2017-Aug-14 12:59N 55°25' E 013°49'0 0.0
2017-Aug-14 12:17N 55°25' E 013°49'0 0.0
2017-Aug-14 11:59N 55°25' E 013°49'0 0.0
2017-Aug-14 11:29N 55°25' E 013°49'0 0.0
2017-Aug-14 10:59N 55°25' E 013°49'0 0.0
2017-Aug-14 10:29N 55°25' E 013°49'0 0.0
2017-Aug-14 09:53N 55°25' E 013°49'0 0.0
2017-Aug-14 09:23N 55°25' E 013°49'0 0.0
2017-Aug-14 08:53N 55°25' E 013°49'0 0.0
2017-Aug-14 08:29N 55°25' E 013°49'0 0.0
2017-Aug-14 07:59N 55°25' E 013°49'0 0.0
2017-Aug-14 07:29N 55°25' E 013°49'0 0.0
2017-Aug-14 06:59N 55°25' E 013°49'0 0.0
2017-Aug-14 06:17N 55°25' E 013°49'0 0.0
2017-Aug-14 05:59N 55°25' E 013°49'0 0.0
2017-Aug-14 05:29N 55°25' E 013°49'0 0.0
2017-Aug-14 04:53N 55°25' E 013°49'0 0.0
2017-Aug-14 04:29N 55°25' E 013°49'0 0.0
2017-Aug-14 03:59N 55°25' E 013°49'0 0.0
2017-Aug-14 03:29N 55°25' E 013°49'0 0.0
2017-Aug-14 02:53N 55°25' E 013°49'0 0.0
2017-Aug-14 02:29N 55°25' E 013°49'0 0.0
2017-Aug-14 01:59N 55°25' E 013°49'0 0.0
2017-Aug-14 01:29N 55°25' E 013°49'0 0.0
2017-Aug-14 00:59N 55°25' E 013°49'0 0.0
2017-Aug-14 00:29N 55°25' E 013°49'0 0.0
2017-Aug-13 23:59N 55°25' E 013°49'0 0.0
2017-Aug-13 23:29N 55°25' E 013°49'0 0.0
2017-Aug-13 22:59N 55°25' E 013°49'0 0.0
2017-Aug-13 22:30N 55°25' E 013°49'0 0.0
2017-Aug-13 22:00N 55°25' E 013°49'0 0.0
2017-Aug-13 21:30N 55°25' E 013°49'1 1.3
2017-Aug-13 21:00N 55°25' E 013°49'4 7.4
2017-Aug-13 20:30N 55°23' E 013°43'1 1.3
2017-Aug-13 19:50N 55°23' E 013°42'0 0.0
2017-Aug-13 19:26N 55°23' E 013°42'0 0.0
2017-Aug-13 18:50N 55°23' E 013°42'0 0.0
2017-Aug-13 18:26N 55°23' E 013°42'0 0.0
2017-Aug-13 17:52N 55°23' E 013°42'0 0.0
2017-Aug-13 17:25N 55°23' E 013°42'0 0.0
2017-Aug-13 16:55N 55°23' E 013°42'0 0.0
2017-Aug-13 16:25N 55°23' E 013°42'0 0.0
2017-Aug-13 15:55N 55°23' E 013°42'0 0.0
2017-Aug-13 15:25N 55°23' E 013°42'0 0.1
2017-Aug-13 14:55N 55°23' E 013°42'0 0.0
2017-Aug-13 14:25N 55°23' E 013°42'0 0.0
2017-Aug-13 13:55N 55°23' E 013°42'0 0.0
2017-Aug-13 13:25N 55°23' E 013°42'0 0.0
2017-Aug-13 12:59N 55°23' E 013°42'0 0.0
2017-Aug-13 12:30N 55°23' E 013°42'0 0.0
2017-Aug-13 12:00N 55°23' E 013°42'0 0.1
2017-Aug-13 11:30N 55°23' E 013°42'0 0.0
2017-Aug-13 11:00N 55°23' E 013°42'0 0.1
2017-Aug-13 10:30N 55°23' E 013°42'0 0.1
2017-Aug-13 10:00N 55°23' E 013°42'0 0.0
2017-Aug-13 09:30N 55°23' E 013°42'0 0.0
2017-Aug-13 08:54N 55°23' E 013°42'0 0.0
2017-Aug-13 08:30N 55°23' E 013°42'  
Track history (hours):
 
Tides and Currents Weather Stations Pressure Air Temp Water Temp Dewpoint Dewpoint Depression Visibility Wind Speed Wind Dir Waves Ship Positions

Blue Bay

Last reported at 2017-Aug-23 07:49 UTC. Time now 2017-Aug-24 08:58 UTC.
Position N 54°29' E 013°40'.

Length 90 m; draft 5.7 m.

Type: Cargo ship. MMSI: 304519000.

Date/timePositionNaut miles runAvg speedWind from/ knotsBaromVisibWave heightAir tempDewpointWater temp
2017-Aug-23 07:49N 54°29' E 013°40'0 0.0
2017-Aug-23 07:22N 54°29' E 013°40'0 0.0
2017-Aug-23 06:21N 54°29' E 013°40'0 0.0
2017-Aug-23 04:50N 54°29' E 013°40'0 0.0
2017-Aug-23 04:19N 54°29' E 013°40'0 0.0
2017-Aug-23 03:35N 54°29' E 013°40'0 0.1
2017-Aug-23 03:29N 54°29' E 013°40'0 0.1
2017-Aug-23 03:00N 54°29' E 013°40'13 3.6
2017-Aug-22 23:25N 54°42' E 013°35'410.0
2017-Aug-22 23:01N 54°45' E 013°32'5 9.7
2017-Aug-22 22:30N 54°50' E 013°29'5 9.6
2017-Aug-22 22:01N 54°55' E 013°26'5 9.2
2017-Aug-22 21:31N 54°58' E 013°22'6 9.0
2017-Aug-22 20:51N 55°03' E 013°16'3 9.4
2017-Aug-22 20:29N 55°05' E 013°11'4 9.3
2017-Aug-22 20:01N 55°08' E 013°05'5 9.2
2017-Aug-22 19:30N 55°11' E 012°59'5 9.5
2017-Aug-22 19:00N 55°14' E 012°52'5 9.5
2017-Aug-22 18:31N 55°16' E 012°45'5 9.2
2017-Aug-22 18:00N 55°18' E 012°38'4 8.6
2017-Aug-22 17:30N 55°23' E 012°39'4 8.9
2017-Aug-22 17:00N 55°27' E 012°40'5 9.3
2017-Aug-22 16:31N 55°32' E 012°42'5 9.1
2017-Aug-22 16:01N 55°36' E 012°42'5 9.2
2017-Aug-22 15:31N 55°41' E 012°41'5 9.6
2017-Aug-22 15:01N 55°45' E 012°41'5 9.0
2017-Aug-22 14:31N 55°50' E 012°43'3 6.7
2017-Aug-22 14:01N 55°53' E 012°46'2 4.4
2017-Aug-22 13:31N 55°52' E 012°50'0 0.2
2017-Aug-22 12:58N 55°52' E 012°50'0 0.0
2017-Aug-22 12:28N 55°52' E 012°50'0 0.0
2017-Aug-22 11:58N 55°52' E 012°50'0 0.0
2017-Aug-22 11:28N 55°52' E 012°50'0 0.0
2017-Aug-22 10:58N 55°52' E 012°50'0 0.0
2017-Aug-22 10:28N 55°52' E 012°50'0 0.0
2017-Aug-22 09:58N 55°52' E 012°50'0 0.0
2017-Aug-22 09:28N 55°52' E 012°50'0 0.0
2017-Aug-22 08:58N 55°52' E 012°50'0 0.0
2017-Aug-22 08:28N 55°52' E 012°50'0 0.0
2017-Aug-22 07:58N 55°52' E 012°50'0 0.0
2017-Aug-22 07:28N 55°52' E 012°50'0 0.0
2017-Aug-22 06:58N 55°52' E 012°50'0 0.0
2017-Aug-22 06:23N 55°52' E 012°50'0 0.0
2017-Aug-22 05:59N 55°52' E 012°50'0 0.0
2017-Aug-22 05:29N 55°52' E 012°50'0 0.0
2017-Aug-22 04:59N 55°52' E 012°50'0 0.0
2017-Aug-22 04:29N 55°52' E 012°50'0 0.0
2017-Aug-22 03:59N 55°52' E 012°50'0 0.0
2017-Aug-22 03:29N 55°52' E 012°50'0 0.0
2017-Aug-22 02:59N 55°52' E 012°50'0 0.0
2017-Aug-22 02:29N 55°52' E 012°50'0 0.0
2017-Aug-22 01:59N 55°52' E 012°50'0 0.0
2017-Aug-22 01:29N 55°52' E 012°50'0 0.0
2017-Aug-22 00:59N 55°52' E 012°50'0 0.0
2017-Aug-22 00:29N 55°52' E 012°50'0 0.0
2017-Aug-21 23:59N 55°52' E 012°50'0 0.0
2017-Aug-21 23:29N 55°52' E 012°50'0 0.0
2017-Aug-21 22:59N 55°52' E 012°50'0 0.0
2017-Aug-21 22:29N 55°52' E 012°50'0 0.0
2017-Aug-21 21:59N 55°52' E 012°50'0 0.0
2017-Aug-21 21:29N 55°52' E 012°50'0 0.0
2017-Aug-21 20:59N 55°52' E 012°50'0 0.0
2017-Aug-21 20:29N 55°52' E 012°50'0 0.0
2017-Aug-21 19:59N 55°52' E 012°50'0 0.0
2017-Aug-21 19:29N 55°52' E 012°50'0 0.0
2017-Aug-21 18:59N 55°52' E 012°50'0 0.0
2017-Aug-21 18:29N 55°52' E 012°50'0 0.0
2017-Aug-21 17:59N 55°52' E 012°50'0 0.0
2017-Aug-21 17:29N 55°52' E 012°50'0 0.0
2017-Aug-21 16:59N 55°52' E 012°50'0 0.0
2017-Aug-21 16:29N 55°52' E 012°50'0 0.0
2017-Aug-21 15:59N 55°52' E 012°50'0 0.0
2017-Aug-21 15:29N 55°52' E 012°50'0 0.0
2017-Aug-21 14:55N 55°52' E 012°50'0 0.0
2017-Aug-21 14:28N 55°52' E 012°50'0 0.0
2017-Aug-21 13:58N 55°52' E 012°50'0 0.0
2017-Aug-21 13:28N 55°52' E 012°50'0 0.0
2017-Aug-21 12:58N 55°52' E 012°50'0 0.0
2017-Aug-21 12:28N 55°52' E 012°50'0 0.0
2017-Aug-21 11:58N 55°52' E 012°50'0 0.0
2017-Aug-21 11:28N 55°52' E 012°50'0 0.0
2017-Aug-21 10:58N 55°52' E 012°50'0 0.0
2017-Aug-21 10:28N 55°52' E 012°50'0 0.0
2017-Aug-21 09:58N 55°52' E 012°50'0 0.0
2017-Aug-21 09:28N 55°52' E 012°50'0 0.0
2017-Aug-21 08:58N 55°52' E 012°50'0 0.0
2017-Aug-21 08:28N 55°52' E 012°50'0 0.0
2017-Aug-21 07:58N 55°52' E 012°50'0 0.0
2017-Aug-21 07:28N 55°52' E 012°50'0 0.0
2017-Aug-21 06:58N 55°52' E 012°50'0 0.0
2017-Aug-21 06:28N 55°52' E 012°50'0 0.0
2017-Aug-21 05:58N 55°52' E 012°50'0 0.0
2017-Aug-21 05:28N 55°52' E 012°50'0 0.0
2017-Aug-21 04:58N 55°52' E 012°50'0 0.0
2017-Aug-21 04:28N 55°52' E 012°50'0 0.0
2017-Aug-21 03:58N 55°52' E 012°50'0 0.0
2017-Aug-21 03:28N 55°52' E 012°50'0 0.0
2017-Aug-21 02:58N 55°52' E 012°50'0 0.0
2017-Aug-21 02:28N 55°52' E 012°50'0 0.0
2017-Aug-21 01:58N 55°52' E 012°50'0 0.0
2017-Aug-21 01:28N 55°52' E 012°50'0 0.0
2017-Aug-21 00:58N 55°52' E 012°50'0 0.0
2017-Aug-21 00:28N 55°52' E 012°50'0 0.0
2017-Aug-20 23:58N 55°52' E 012°50'0 0.0
2017-Aug-20 23:28N 55°52' E 012°50'0 0.0
2017-Aug-20 22:58N 55°52' E 012°50'0 0.0
2017-Aug-20 22:28N 55°52' E 012°50'0 0.0
2017-Aug-20 21:58N 55°52' E 012°50'0 0.0
2017-Aug-20 21:28N 55°52' E 012°50'0 0.0
2017-Aug-20 20:58N 55°52' E 012°50'0 0.0
2017-Aug-20 20:28N 55°52' E 012°50'0 0.0
2017-Aug-20 19:58N 55°52' E 012°50'0 0.0
2017-Aug-20 19:28N 55°52' E 012°50'0 0.0
2017-Aug-20 18:58N 55°52' E 012°50'0 0.0
2017-Aug-20 18:28N 55°52' E 012°50'0 0.0
2017-Aug-20 17:55N 55°52' E 012°50'0 0.0
2017-Aug-20 17:28N 55°52' E 012°50'0 0.0
2017-Aug-20 16:58N 55°52' E 012°50'0 0.0
2017-Aug-20 16:28N 55°52' E 012°50'0 0.0
2017-Aug-20 15:58N 55°52' E 012°50'0 0.0
2017-Aug-20 15:28N 55°52' E 012°50'0 0.0
2017-Aug-20 14:58N 55°52' E 012°50'0 0.0
2017-Aug-20 14:28N 55°52' E 012°50'0 0.0
2017-Aug-20 13:58N 55°52' E 012°50'0 0.0
2017-Aug-20 13:28N 55°52' E 012°50'0 0.0
2017-Aug-20 12:58N 55°52' E 012°50'0 0.0
2017-Aug-20 12:28N 55°52' E 012°50'0 0.0
2017-Aug-20 11:58N 55°52' E 012°50'0 0.0
2017-Aug-20 11:28N 55°52' E 012°50'0 0.0
2017-Aug-20 10:58N 55°52' E 012°50'0 0.0
2017-Aug-20 10:28N 55°52' E 012°50'0 0.0
2017-Aug-20 09:58N 55°52' E 012°50'0 0.0
2017-Aug-20 09:28N 55°52' E 012°50'0 0.0
2017-Aug-20 08:55N 55°52' E 012°50'0 0.0
2017-Aug-20 08:28N 55°52' E 012°50'0 0.0
2017-Aug-20 07:58N 55°52' E 012°50'0 0.0
2017-Aug-20 07:28N 55°52' E 012°50'0 0.0
2017-Aug-20 07:00N 55°52' E 012°50'2 3.0
2017-Aug-20 06:30N 55°52' E 012°47'4 7.8
2017-Aug-20 06:00N 55°56' E 012°44'510.7
2017-Aug-20 05:30N 56°01' E 012°40'510.0
2017-Aug-20 05:00N 56°05' E 012°35'611.1
2017-Aug-20 04:30N 56°08' E 012°27'510.6
2017-Aug-20 04:00N 56°11' E 012°19'51 9.8
2017-Aug-19 22:50N 56°58' E 011°43'610.3
2017-Aug-19 22:17N 57°03' E 011°40'4 9.9
2017-Aug-19 21:50N 57°07' E 011°37'4 9.8
2017-Aug-19 21:27N 57°11' E 011°34'5 9.7
2017-Aug-19 20:59N 57°15' E 011°31'5 9.9
2017-Aug-19 20:30N 57°19' E 011°28'5 9.8
2017-Aug-19 20:00N 57°24' E 011°25'5 9.3
2017-Aug-19 19:30N 57°28' E 011°22'5 9.6
2017-Aug-19 19:00N 57°32' E 011°16'510.6
2017-Aug-19 18:30N 57°35' E 011°08'510.7
2017-Aug-19 18:00N 57°39' E 011°01'610.5
2017-Aug-19 17:28N 57°43' E 010°54'510.4
2017-Aug-19 17:00N 57°46' E 010°47'611.6
2017-Aug-19 16:30N 57°46' E 010°37'612.1
2017-Aug-19 16:00N 57°45' E 010°25'611.4
2017-Aug-19 15:30N 57°43' E 010°15'15910.9
2017-Aug-19 00:58N 55°35' E 007°25'611.7
2017-Aug-19 00:29N 55°29' E 007°25'611.6
2017-Aug-19 00:00N 55°23' E 007°26'611.4
2017-Aug-18 23:30N 55°18' E 007°26'611.5
2017-Aug-18 23:00N 55°12' E 007°26'611.6
2017-Aug-18 22:30N 55°06' E 007°26'611.8
2017-Aug-18 22:00N 55°00' E 007°26'611.4
2017-Aug-18 21:30N 54°55' E 007°26'611.4
2017-Aug-18 20:58N 54°49' E 007°27'911.3
2017-Aug-18 20:13N 54°40' E 007°29'33 9.9
2017-Aug-18 16:53N 54°08' E 007°43'4 9.6
2017-Aug-18 16:30N 54°07' E 007°49'5 9.7
2017-Aug-18 15:59N 54°04' E 007°56'510.2
2017-Aug-18 15:30N 54°02' E 008°04'510.3
2017-Aug-18 15:00N 54°01' E 008°12'611.8
2017-Aug-18 14:30N 53°60' E 008°22'1212.4
2017-Aug-18 13:30N 53°55' E 008°41'713.6
2017-Aug-18 13:01N 53°50' E 008°50'714.0
2017-Aug-18 12:30N 53°52' E 009°02'611.7
2017-Aug-18 12:00N 53°53' E 009°12'611.3
2017-Aug-18 11:30N 53°51' E 009°20'611.4
2017-Aug-18 11:01N 53°45' E 009°24'510.3
2017-Aug-18 10:30N 53°41' E 009°30'5 9.7
2017-Aug-18 10:01N 53°37' E 009°33'5 9.5
2017-Aug-18 09:31N 53°34' E 009°40'4 8.5
2017-Aug-18 09:01N 53°34' E 009°47'4 8.5
2017-Aug-18 08:31N 53°33' E 009°54'2 4.0
2017-Aug-18 07:59N 53°31' E 009°57'0 0.0
2017-Aug-18 07:29N 53°31' E 009°57'0 0.0
2017-Aug-18 06:59N 53°31' E 009°57'0 0.0
2017-Aug-18 06:30N 53°31' E 009°57'0 0.0
2017-Aug-18 05:59N 53°31' E 009°57'0 0.0
2017-Aug-18 05:26N 53°31' E 009°57'0 0.0
2017-Aug-18 05:00N 53°31' E 009°57'0 0.0
2017-Aug-18 04:29N 53°31' E 009°57'0 0.0
2017-Aug-18 03:59N 53°31' E 009°57'0 0.0
2017-Aug-18 03:30N 53°31' E 009°57'0 0.0
2017-Aug-18 03:00N 53°31' E 009°57'0 0.0
2017-Aug-18 02:26N 53°31' E 009°57'0 0.0
2017-Aug-18 01:59N 53°31' E 009°57'0 0.0
2017-Aug-18 01:29N 53°31' E 009°57'0 0.0
2017-Aug-18 00:59N 53°31' E 009°57'0 0.0
2017-Aug-18 00:30N 53°31' E 009°57'0 0.0
2017-Aug-17 23:59N 53°31' E 009°57'0 0.0
2017-Aug-17 23:26N 53°31' E 009°57'0 0.0
2017-Aug-17 22:56N 53°31' E 009°57'0 0.0
2017-Aug-17 22:29N 53°31' E 009°57'0 0.0
2017-Aug-17 21:59N 53°31' E 009°57'0 0.0
2017-Aug-17 21:29N 53°31' E 009°57'0 0.0
2017-Aug-17 20:59N 53°31' E 009°57'0 0.0
2017-Aug-17 20:30N 53°31' E 009°57'0 0.0
2017-Aug-17 19:59N 53°31' E 009°57'0 0.0
2017-Aug-17 19:29N 53°31' E 009°57'0 0.0
2017-Aug-17 18:59N 53°31' E 009°57'0 0.0
2017-Aug-17 18:31N 53°31' E 009°57'1 2.9
2017-Aug-17 18:00N 53°32' E 009°55'4 8.3
2017-Aug-17 17:31N 53°33' E 009°49'5 9.3
2017-Aug-17 17:01N 53°34' E 009°41'4 8.7
2017-Aug-17 16:31N 53°36' E 009°35'1 2.8
2017-Aug-17 16:00N 53°37' E 009°33'0 0.0
2017-Aug-17 15:30N 53°37' E 009°33'0 0.0
2017-Aug-17 15:00N 53°37' E 009°33'0 0.0
2017-Aug-17 14:30N 53°37' E 009°33'0 0.0
2017-Aug-17 14:00N 53°37' E 009°33'0 0.0
2017-Aug-17 13:30N 53°37' E 009°33'0 0.0
2017-Aug-17 13:00N 53°37' E 009°33'0 0.0
2017-Aug-17 12:30N 53°37' E 009°33'0 0.0
2017-Aug-17 12:00N 53°37' E 009°33'0 0.0
2017-Aug-17 11:30N 53°37' E 009°33'0 0.0
2017-Aug-17 11:00N 53°37' E 009°33'0 0.0
2017-Aug-17 10:30N 53°37' E 009°33'0 0.2
2017-Aug-17 10:00N 53°37' E 009°33'0 0.1
2017-Aug-17 09:30N 53°37' E 009°33'0 0.1
2017-Aug-17 09:00N 53°37' E 009°33'0 0.0
2017-Aug-17 08:30N 53°37' E 009°33'0 0.1
2017-Aug-17 08:01N 53°37' E 009°33'0 0.1
2017-Aug-17 07:30N 53°37' E 009°33'0 0.0
2017-Aug-17 07:00N 53°37' E 009°33'0 0.0
2017-Aug-17 06:31N 53°37' E 009°33'0 0.1
2017-Aug-17 06:00N 53°37' E 009°33'0 0.1
2017-Aug-17 05:31N 53°37' E 009°33'0 0.0
2017-Aug-17 05:00N 53°37' E 009°33'0 0.2
2017-Aug-17 04:30N 53°37' E 009°33'0 0.1
2017-Aug-17 04:01N 53°37' E 009°33'0 0.0
2017-Aug-17 03:30N 53°37' E 009°33'0 0.0
2017-Aug-17 03:00N 53°37' E 009°33'0 0.0
2017-Aug-17 02:30N 53°37' E 009°33'0 0.0
2017-Aug-17 02:00N 53°37' E 009°33'0 0.0
2017-Aug-17 01:30N 53°37' E 009°33'0 0.0
2017-Aug-17 01:00N 53°37' E 009°33'0 0.0
2017-Aug-17 00:30N 53°37' E 009°33'0 0.0
2017-Aug-17 00:01N 53°37' E 009°33'0 0.0
2017-Aug-16 23:30N 53°37' E 009°33'0 0.0
2017-Aug-16 23:00N 53°37' E 009°33'0 0.0
2017-Aug-16 22:30N 53°37' E 009°33'0 0.0
2017-Aug-16 22:00N 53°37' E 009°33'0 0.2
2017-Aug-16 21:30N 53°37' E 009°33'0 0.0
2017-Aug-16 21:00N 53°37' E 009°33'0 0.0
2017-Aug-16 20:30N 53°37' E 009°33'0 0.0
2017-Aug-16 20:00N 53°37' E 009°33'0 0.0
2017-Aug-16 19:30N 53°37' E 009°33'0 0.0
2017-Aug-16 19:00N 53°37' E 009°33'0 0.0
2017-Aug-16 18:31N 53°37' E 009°33'0 0.0
2017-Aug-16 18:00N 53°37' E 009°33'0 0.0
2017-Aug-16 17:31N 53°37' E 009°33'0 0.0
2017-Aug-16 17:00N 53°37' E 009°33'0 0.0
2017-Aug-16 16:30N 53°37' E 009°33'0 0.1
2017-Aug-16 16:00N 53°37' E 009°33'0 0.2
2017-Aug-16 15:30N 53°37' E 009°33'3 6.7
2017-Aug-16 15:00N 53°40' E 009°30'4 8.4
2017-Aug-16 14:31N 53°44' E 009°27'4 7.8
2017-Aug-16 14:01N 53°47' E 009°23'4 7.8
2017-Aug-16 13:30N 53°50' E 009°20'4 7.5
2017-Aug-16 13:00N 53°52' E 009°15'4 7.2
2017-Aug-16 12:30N 53°53' E 009°09'1 1.8
2017-Aug-16 12:00N 53°54' E 009°09'2 3.1
2017-Aug-16 11:30N 53°55' E 009°11'4 8.5
2017-Aug-16 11:00N 53°58' E 009°15'4 8.4
2017-Aug-16 10:30N 54°02' E 009°18'6 8.6
2017-Aug-16 09:49N 54°08' E 009°20'35 5.7
2017-Aug-16 03:41N 54°24' E 010°12'2 9.2
2017-Aug-16 03:28N 54°26' E 010°13'5 9.1
2017-Aug-16 02:55N 54°30' E 010°18'4 9.1
2017-Aug-16 02:30N 54°32' E 010°24'5 9.3
2017-Aug-16 02:00N 54°34' E 010°32'4 9.1
2017-Aug-16 01:30N 54°35' E 010°39'5 9.2
2017-Aug-16 01:00N 54°35' E 010°47'510.0
2017-Aug-16 00:31N 54°36' E 010°56'510.4
2017-Aug-16 00:00N 54°36' E 011°05'510.2
2017-Aug-15 23:30N 54°35' E 011°13'510.4
2017-Aug-15 23:00N 54°33' E 011°21'510.0
2017-Aug-15 22:30N 54°31' E 011°29'5 9.7
2017-Aug-15 22:00N 54°29' E 011°37'5 9.8
2017-Aug-15 21:30N 54°27' E 011°44'5 9.4
2017-Aug-15 21:00N 54°26' E 011°52'9 9.8
2017-Aug-15 20:05N 54°27' E 012°08'110.1
2017-Aug-15 20:00N 54°27' E 012°09'5 9.8
2017-Aug-15 19:30N 54°32' E 012°12'510.0
2017-Aug-15 19:00N 54°36' E 012°15'5 9.3
2017-Aug-15 18:30N 54°39' E 012°21'5 9.4
2017-Aug-15 18:00N 54°42' E 012°28'5 9.5
2017-Aug-15 17:30N 54°45' E 012°35'5 9.2
2017-Aug-15 17:00N 54°47' E 012°41'5 9.4
2017-Aug-15 16:30N 54°49' E 012°49'5 9.7
2017-Aug-15 16:01N 54°50' E 012°57'5 9.7
2017-Aug-15 15:30N 54°52' E 013°05'5 9.5
2017-Aug-15 15:01N 54°53' E 013°13'5 9.5
2017-Aug-15 14:30N 54°55' E 013°21'4 9.0
2017-Aug-15 14:00N 54°57' E 013°27'5 9.4
2017-Aug-15 13:31N 55°02' E 013°30'5 9.3
2017-Aug-15 13:00N 55°06' E 013°34'5 9.3
2017-Aug-15 12:31N 55°10' E 013°37'5 9.3
2017-Aug-15 12:01N 55°14' E 013°40'5 9.5
2017-Aug-15 11:31N 55°19' E 013°44'5 9.4
2017-Aug-15 11:00N 55°23' E 013°47'3 5.5
2017-Aug-15 10:29N 55°26' E 013°49'0 0.0
2017-Aug-15 09:53N 55°26' E 013°49'0 0.0
2017-Aug-15 09:29N 55°25' E 013°49'0 0.0
2017-Aug-15 08:59N 55°26' E 013°49'0 0.1
2017-Aug-15 08:29N 55°25' E 013°49'0 0.0
2017-Aug-15 07:59N 55°25' E 013°49'0 0.0
2017-Aug-15 07:23N 55°25' E 013°49'0 0.0
2017-Aug-15 06:59N 55°25' E 013°49'0 0.0
2017-Aug-15 06:29N 55°25' E 013°49'0 0.0
2017-Aug-15 05:59N 55°25' E 013°49'0 0.0
2017-Aug-15 05:23N 55°25' E 013°49'0 0.0
2017-Aug-15 04:59N 55°25' E 013°49'0 0.0
2017-Aug-15 04:23N 55°25' E 013°49'0 0.0
2017-Aug-15 03:59N 55°25' E 013°49'0 0.0
2017-Aug-15 03:29N 55°25' E 013°49'0 0.0
2017-Aug-15 02:59N 55°25' E 013°49'0 0.0
2017-Aug-15 02:29N 55°25' E 013°49'0 0.0
2017-Aug-15 01:59N 55°25' E 013°49'0 0.0
2017-Aug-15 01:29N 55°25' E 013°49'0 0.0
2017-Aug-15 00:59N 55°25' E 013°49'0 0.0
2017-Aug-15 00:29N 55°25' E 013°49'0 0.0
2017-Aug-14 23:59N 55°25' E 013°49'0 0.0
2017-Aug-14 23:29N 55°25' E 013°49'0 0.0
2017-Aug-14 22:59N 55°25' E 013°49'0 0.0
2017-Aug-14 22:29N 55°25' E 013°49'0 0.0
2017-Aug-14 21:59N 55°25' E 013°49'0 0.0
2017-Aug-14 21:29N 55°25' E 013°49'0 0.0
2017-Aug-14 20:59N 55°25' E 013°49'0 0.0
2017-Aug-14 20:29N 55°25' E 013°49'0 0.0
2017-Aug-14 19:59N 55°25' E 013°49'0 0.0
2017-Aug-14 19:29N 55°25' E 013°49'0 0.0
2017-Aug-14 18:53N 55°25' E 013°49'0 0.0
2017-Aug-14 18:29N 55°25' E 013°49'0 0.1
2017-Aug-14 17:59N 55°26' E 013°49'0 0.0
2017-Aug-14 17:29N 55°26' E 013°49'0 0.1
2017-Aug-14 16:59N 55°25' E 013°49'0 0.0
2017-Aug-14 16:29N 55°25' E 013°49'0 0.0
2017-Aug-14 15:59N 55°25' E 013°49'0 0.0
2017-Aug-14 15:23N 55°25' E 013°49'0 0.0
2017-Aug-14 14:53N 55°25' E 013°49'0 0.0
2017-Aug-14 14:29N 55°25' E 013°49'0 0.0
2017-Aug-14 13:59N 55°25' E 013°49'0 0.0
2017-Aug-14 13:29N 55°25' E 013°49'0 0.0
2017-Aug-14 12:59N 55°25' E 013°49'0 0.0
2017-Aug-14 12:17N 55°25' E 013°49'0 0.0
2017-Aug-14 11:59N 55°25' E 013°49'0 0.0
2017-Aug-14 11:29N 55°25' E 013°49'0 0.0
2017-Aug-14 10:59N 55°25' E 013°49'0 0.0
2017-Aug-14 10:29N 55°25' E 013°49'0 0.0
2017-Aug-14 09:53N 55°25' E 013°49'0 0.0
2017-Aug-14 09:23N 55°25' E 013°49'0 0.0
2017-Aug-14 08:53N 55°25' E 013°49'0 0.0
2017-Aug-14 08:29N 55°25' E 013°49'0 0.0
2017-Aug-14 07:59N 55°25' E 013°49'0 0.0
2017-Aug-14 07:29N 55°25' E 013°49'0 0.0
2017-Aug-14 06:59N 55°25' E 013°49'0 0.0
2017-Aug-14 06:17N 55°25' E 013°49'0 0.0
2017-Aug-14 05:59N 55°25' E 013°49'0 0.0
2017-Aug-14 05:29N 55°25' E 013°49'0 0.0
2017-Aug-14 04:53N 55°25' E 013°49'0 0.0
2017-Aug-14 04:29N 55°25' E 013°49'0 0.0
2017-Aug-14 03:59N 55°25' E 013°49'0 0.0
2017-Aug-14 03:29N 55°25' E 013°49'0 0.0
2017-Aug-14 02:53N 55°25' E 013°49'0 0.0
2017-Aug-14 02:29N 55°25' E 013°49'0 0.0
2017-Aug-14 01:59N 55°25' E 013°49'0 0.0
2017-Aug-14 01:29N 55°25' E 013°49'0 0.0
2017-Aug-14 00:59N 55°25' E 013°49'0 0.0
2017-Aug-14 00:29N 55°25' E 013°49'0 0.0
2017-Aug-13 23:59N 55°25' E 013°49'0 0.0
2017-Aug-13 23:29N 55°25' E 013°49'0 0.0
2017-Aug-13 22:59N 55°25' E 013°49'0 0.0
2017-Aug-13 22:30N 55°25' E 013°49'0 0.0
2017-Aug-13 22:00N 55°25' E 013°49'0 0.0
2017-Aug-13 21:30N 55°25' E 013°49'1 1.3
2017-Aug-13 21:00N 55°25' E 013°49'4 7.4
2017-Aug-13 20:30N 55°23' E 013°43'1 1.3
2017-Aug-13 19:50N 55°23' E 013°42'0 0.0
2017-Aug-13 19:26N 55°23' E 013°42'0 0.0
2017-Aug-13 18:50N 55°23' E 013°42'0 0.0
2017-Aug-13 18:26N 55°23' E 013°42'0 0.0
2017-Aug-13 17:52N 55°23' E 013°42'0 0.0
2017-Aug-13 17:25N 55°23' E 013°42'0 0.0
2017-Aug-13 16:55N 55°23' E 013°42'0 0.0
2017-Aug-13 16:25N 55°23' E 013°42'0 0.0
2017-Aug-13 15:55N 55°23' E 013°42'0 0.0
2017-Aug-13 15:25N 55°23' E 013°42'0 0.1
2017-Aug-13 14:55N 55°23' E 013°42'0 0.0
2017-Aug-13 14:25N 55°23' E 013°42'0 0.0
2017-Aug-13 13:55N 55°23' E 013°42'0 0.0
2017-Aug-13 13:25N 55°23' E 013°42'0 0.0
2017-Aug-13 12:59N 55°23' E 013°42'0 0.0
2017-Aug-13 12:30N 55°23' E 013°42'0 0.0
2017-Aug-13 12:00N 55°23' E 013°42'0 0.1
2017-Aug-13 11:30N 55°23' E 013°42'0 0.0
2017-Aug-13 11:00N 55°23' E 013°42'0 0.1
2017-Aug-13 10:30N 55°23' E 013°42'0 0.1
2017-Aug-13 10:00N 55°23' E 013°42'0 0.0
2017-Aug-13 09:30N 55°23' E 013°42'0 0.0
2017-Aug-13 08:54N 55°23' E 013°42'0 0.0
2017-Aug-13 08:30N 55°23' E 013°42'  

Dump ship's entire track history